Norwood, Massachusetts
Current Conditions -  °F | °C
As of 12:53 PM on Saturday 20 Dec 2014 (Local Time) from KOWD Reporting Station
Overcast Overcast  
Wind Chill: 34°   Ceiling: 2000
Heat Index: 34°   Visibility: 10mi
Dew Point: 24°   Wind: 3mph
Humidity: 67%   Direction: 10°N
Pressure: 30.25"   Gusts: NA
Location:  42.2°N, 71.2°W
Report Text: KOWD 201753Z 01003KT 10SM OVC020 01/M04 A3025 RMK AO2 SLP246 T00111044 10011 21056 56012
Loading
Personal Weather Stations






























Interactive Weather Map New forecast layout! Learn more

10-Day Weather Forecast

Advertisements
Track Severe Weather on mobile